Time;durP1;ratioP1;P1;durP2;ratioP2;P2;SDS_P1;SDS_P2;PMS_P1;PMS_P2;Temp;Humidity;BMP_temperature;BMP_pressure;BME280_temperature;BME280_humidity;BME280_pressure;Samples;Min_cycle;Max_cycle;Signal;HPM_P1;HPM_P2
2021/10/20 00:01:04;;;;;;;0.75;0.50;;;18.80;66.30;;;;;;4984105;28;96265;-73
2021/10/20 00:03:34;;;;;;;1.00;0.35;;;18.90;66.20;;;;;;4986048;28;96064;-65
2021/10/20 00:06:05;;;;;;;0.95;0.40;;;18.90;66.20;;;;;;4984833;28;96326;-70
2021/10/20 00:08:37;;;;;;;1.10;0.40;;;18.90;66.50;;;;;;4985929;28;95554;-74
2021/10/20 00:11:07;;;;;;;1.35;0.85;;;19.00;66.90;;;;;;4987068;28;96415;-63
2021/10/20 00:13:39;;;;;;;2.78;0.52;;;19.00;65.90;;;;;;4986128;28;96343;-70
2021/10/20 00:16:10;;;;;;;2.70;0.50;;;19.00;66.80;;;;;;4978576;28;95788;-65
2021/10/20 00:18:47;;;;;;;;;;;19.00;66.20;;;;;;4984030;28;96537;-65
2021/10/20 00:21:24;;;;;;;1.08;0.57;;;19.10;67.30;;;;;;4976168;28;95738;-73
2021/10/20 00:23:56;;;;;;;0.75;0.30;;;19.10;67.60;;;;;;4980029;28;96724;-64
2021/10/20 00:26:26;;;;;;;0.35;0.30;;;19.20;67.20;;;;;;4988908;28;96306;-72
2021/10/20 00:28:58;;;;;;;5.72;0.55;;;19.20;67.80;;;;;;4975122;28;95878;-75
2021/10/20 00:31:28;;;;;;;;;;;19.30;68.10;;;;;;4980111;28;95458;-65
2021/10/20 00:33:59;;;;;;;1.60;0.60;;;19.40;68.00;;;;;;4976316;28;96891;-67
2021/10/20 00:36:30;;;;;;;3.72;0.43;;;19.40;68.10;;;;;;4982962;28;95854;-65
2021/10/20 00:39:01;;;;;;;0.40;0.40;;;19.50;65.50;;;;;;4987697;28;95627;-65
2021/10/20 00:41:33;;;;;;;1.00;0.55;;;19.70;67.80;;;;;;4988171;28;97434;-66
2021/10/20 00:44:03;;;;;;;;;;;19.70;67.70;;;;;;4979447;28;96238;-73
2021/10/20 00:46:34;;;;;;;0.50;0.30;;;19.90;67.50;;;;;;4973178;28;97568;-65
2021/10/20 00:49:06;;;;;;;2.20;0.73;;;19.90;67.60;;;;;;4980836;28;95757;-65
2021/10/20 00:51:38;;;;;;;0.30;0.30;;;20.00;67.20;;;;;;4988388;28;95773;-66
2021/10/20 00:54:08;;;;;;;;;;;20.10;67.10;;;;;;4984781;28;96063;-75
2021/10/20 00:56:39;;;;;;;0.35;0.30;;;20.20;67.30;;;;;;4994511;28;95786;-66
2021/10/20 00:59:09;;;;;;;;;;;20.30;66.90;;;;;;4982800;28;95683;-65
2021/10/20 01:01:39;;;;;;;0.75;0.47;;;20.40;67.00;;;;;;4972606;28;95667;-65
2021/10/20 01:04:09;;;;;;;1.40;0.20;;;20.40;67.00;;;;;;4979701;28;96219;-76
2021/10/20 01:06:39;;;;;;;0.47;0.20;;;20.50;66.90;;;;;;4979693;28;95812;-66
2021/10/20 01:09:09;;;;;;;0.47;0.28;;;20.60;66.80;;;;;;4990312;28;95334;-76
2021/10/20 01:11:39;;;;;;;0.20;0.20;;;20.70;66.50;;;;;;4988995;28;95538;-66
2021/10/20 01:14:11;;;;;;;0.45;0.20;;;20.70;66.50;;;;;;4983976;28;97601;-65
2021/10/20 01:16:44;;;;;;;1.52;0.32;;;20.80;66.60;;;;;;4973053;28;98753;-74
2021/10/20 01:19:16;;;;;;;0.85;0.30;;;20.90;66.20;;;;;;4985620;28;95972;-71
2021/10/20 01:21:46;;;;;;;;;;;21.00;66.30;;;;;;4986200;28;95265;-64
2021/10/20 01:24:21;;;;;;;0.55;0.35;;;21.20;66.00;;;;;;4988696;28;96455;-72
2021/10/20 01:26:54;;;;;;;0.52;0.52;;;21.30;65.80;;;;;;4979300;28;96307;-65
2021/10/20 01:29:26;;;;;;;0.60;0.60;;;21.40;65.60;;;;;;4982837;28;96516;-72
2021/10/20 01:32:00;;;;;;;0.88;0.40;;;21.60;65.10;;;;;;4977950;28;96304;-64
2021/10/20 01:34:32;;;;;;;0.45;0.43;;;21.70;65.40;;;;;;4985112;28;95882;-63
2021/10/20 01:37:05;;;;;;;2.53;0.43;;;21.90;65.20;;;;;;4994128;28;95511;-65
2021/10/20 01:39:37;;;;;;;0.63;0.63;;;21.90;64.80;;;;;;4984362;28;95326;-65
2021/10/20 01:42:08;;;;;;;1.88;0.47;;;22.10;65.00;;;;;;4988476;28;95900;-70
2021/10/20 01:44:38;;;;;;;0.32;0.32;;;22.20;65.00;;;;;;4988558;28;96015;-64
2021/10/20 01:47:09;;;;;;;0.40;0.40;;;22.30;64.50;;;;;;4990086;28;95706;-64
2021/10/20 01:49:40;;;;;;;0.40;0.40;;;22.50;64.30;;;;;;4989393;28;95799;-65
2021/10/20 01:52:11;;;;;;;1.27;0.50;;;22.60;64.20;;;;;;4997268;28;95342;-65
2021/10/20 01:54:43;;;;;;;0.50;0.50;;;22.70;64.10;;;;;;5012490;28;96663;-63
2021/10/20 01:57:13;;;;;;;0.50;0.50;;;22.80;63.90;;;;;;4985259;28;95978;-62
2021/10/20 01:59:42;;;;;;;1.45;0.73;;;22.90;63.80;;;;;;4986315;28;95631;-70
2021/10/20 02:02:30;;;;;;;5.38;0.80;;;23.00;63.20;;;;;;4985128;28;96150;-76
2021/10/20 02:05:00;;;;;;;1.02;0.65;;;22.90;61.50;;;;;;4987204;28;96147;-75
2021/10/20 02:07:30;;;;;;;1.70;0.80;;;22.90;63.40;;;;;;4989217;28;95368;-66
2021/10/20 02:10:00;;;;;;;2.65;0.80;;;23.00;63.40;;;;;;4994907;28;95989;-73
2021/10/20 02:12:30;;;;;;;0.65;0.60;;;23.00;63.20;;;;;;4992847;28;95506;-74
2021/10/20 02:15:01;;;;;;;0.70;0.68;;;23.10;62.80;;;;;;5002263;28;95676;-64
2021/10/20 02:17:36;;;;;;;0.65;0.60;;;23.10;63.00;;;;;;4993032;28;95587;-65
2021/10/20 02:20:11;;;;;;;0.50;0.50;;;23.20;62.60;;;;;;4987796;28;95300;-65
2021/10/20 02:22:46;;;;;;;0.52;0.47;;;23.10;63.30;;;;;;4990120;28;95946;-65
2021/10/20 02:25:18;;;;;;;0.88;0.70;;;23.20;62.60;;;;;;4995311;28;97802;-64
2021/10/20 02:27:52;;;;;;;0.95;0.70;;;23.20;63.20;;;;;;4987564;28;96336;-66
2021/10/20 02:30:25;;;;;;;0.50;0.50;;;23.20;63.10;;;;;;4990324;28;95238;-75
2021/10/20 02:32:56;;;;;;;0.57;0.55;;;23.20;63.30;;;;;;4992967;28;96133;-74
2021/10/20 02:35:26;;;;;;;1.35;0.50;;;23.30;63.20;;;;;;4988344;28;96427;-66
2021/10/20 02:37:59;;;;;;;1.30;1.27;;;23.30;63.20;;;;;;4989567;28;96529;-73
2021/10/20 02:40:30;;;;;;;0.63;0.52;;;23.30;62.20;;;;;;4999921;28;95894;-65
2021/10/20 02:43:01;;;;;;;0.98;0.65;;;23.30;62.20;;;;;;4983673;28;96081;-65
2021/10/20 02:45:32;;;;;;;1.08;0.80;;;23.20;62.40;;;;;;4995543;28;96147;-69
2021/10/20 02:48:04;;;;;;;2.55;0.77;;;23.30;62.30;;;;;;4993600;28;95175;-65
2021/10/20 02:50:35;;;;;;;0.60;0.60;;;23.20;61.40;;;;;;4985422;28;95644;-67
2021/10/20 02:53:06;;;;;;;2.00;0.95;;;23.20;62.30;;;;;;4990052;28;95889;-72
2021/10/20 02:55:39;;;;;;;3.17;1.00;;;23.20;62.60;;;;;;4985887;28;96169;-73
2021/10/20 02:58:09;;;;;;;2.53;1.00;;;23.10;62.20;;;;;;4981863;28;96654;-74
2021/10/20 03:00:40;;;;;;;3.13;1.02;;;23.10;62.40;;;;;;4978143;28;96006;-67
2021/10/20 03:03:11;;;;;;;2.05;0.88;;;23.10;62.40;;;;;;4984065;28;95913;-74
2021/10/20 03:05:42;;;;;;;0.52;0.52;;;23.10;62.20;;;;;;4990542;28;95793;-73
2021/10/20 03:08:13;;;;;;;;;;;23.00;62.50;;;;;;4980585;28;96865;-72
2021/10/20 03:10:44;;;;;;;1.02;0.68;;;23.00;62.60;;;;;;4988683;28;96499;-65
2021/10/20 03:13:16;;;;;;;1.10;0.80;;;23.00;63.00;;;;;;4980546;28;95681;-72
2021/10/20 03:15:46;;;;;;;;;;;22.90;63.10;;;;;;4985682;28;98029;-66
2021/10/20 03:18:17;;;;;;;1.10;0.60;;;23.10;62.70;;;;;;4978726;28;97714;-65
2021/10/20 03:20:48;;;;;;;;;;;23.20;62.50;;;;;;4992445;28;95297;-66
2021/10/20 03:23:19;;;;;;;0.80;0.67;;;23.20;62.40;;;;;;4984053;28;95216;-67
2021/10/20 03:25:49;;;;;;;2.40;1.20;;;23.20;61.50;;;;;;4991195;28;96094;-67
2021/10/20 03:28:21;;;;;;;0.90;0.80;;;23.10;62.50;;;;;;4982498;28;95848;-69
2021/10/20 03:30:53;;;;;;;2.17;0.80;;;23.10;62.30;;;;;;4977929;28;95809;-75
2021/10/20 03:33:24;;;;;;;2.55;1.17;;;23.00;62.80;;;;;;4981952;28;95498;-67
2021/10/20 03:35:55;;;;;;;3.85;1.40;;;22.90;58.70;;;;;;4987546;28;96826;-67
2021/10/20 03:38:27;;;;;;;;;;;23.00;62.50;;;;;;5000080;28;97356;-77
2021/10/20 03:40:57;;;;;;;;;;;22.90;62.60;;;;;;4989399;28;95351;-77
2021/10/20 03:43:40;;;;;;;3.85;1.80;;;23.00;62.70;;;;;;4992909;28;97737;-66
2021/10/20 03:46:10;;;;;;;5.45;1.80;;;23.00;62.30;;;;;;4985615;28;96828;-76
2021/10/20 03:48:42;;;;;;;7.65;2.40;;;23.00;62.40;;;;;;4986220;28;96391;-73
2021/10/20 03:51:13;;;;;;;5.00;1.98;;;23.00;61.90;;;;;;4992363;28;95217;-76
2021/10/20 03:53:47;;;;;;;7.80;2.53;;;23.10;61.90;;;;;;4984290;28;95827;-77
2021/10/20 03:56:18;;;;;;;;;;;23.10;62.00;;;;;;4995356;28;96405;-73
2021/10/20 03:58:48;;;;;;;4.63;1.75;;;23.10;61.70;;;;;;4986653;28;95226;-75
2021/10/20 04:01:19;;;;;;;6.47;1.80;;;23.10;58.10;;;;;;4976975;28;95817;-65
2021/10/20 04:03:50;;;;;;;6.63;3.78;;;23.20;61.20;;;;;;4978050;28;95923;-71
2021/10/20 04:06:27;;;;;;;6.22;1.77;;;23.20;62.00;;;;;;4984890;28;96356;-66
2021/10/20 04:08:57;;;;;;;4.25;2.33;;;23.30;61.90;;;;;;4981025;28;95441;-72
2021/10/20 04:11:27;;;;;;;3.58;2.00;;;23.30;61.10;;;;;;4990137;28;95346;-75
2021/10/20 04:13:58;;;;;;;;;;;23.40;61.30;;;;;;4989333;28;95340;-72
2021/10/20 04:16:28;;;;;;;2.40;1.98;;;23.40;60.00;;;;;;4994464;28;96089;-74
2021/10/20 04:18:59;;;;;;;4.97;1.60;;;23.50;61.00;;;;;;4984608;28;98287;-65
2021/10/20 04:21:30;;;;;;;2.27;1.37;;;23.60;60.80;;;;;;5000791;28;95994;-73
2021/10/20 04:24:01;;;;;;;2.58;1.65;;;23.60;58.00;;;;;;4978269;28;95739;-74
2021/10/20 04:26:33;;;;;;;2.35;1.25;;;23.60;59.40;;;;;;4979849;28;95853;-76
2021/10/20 04:29:05;;;;;;;2.72;1.70;;;23.50;60.40;;;;;;4980953;28;97427;-64
2021/10/20 04:31:36;;;;;;;4.57;1.83;;;23.50;58.20;;;;;;4986216;28;96566;-64
2021/10/20 04:34:06;;;;;;;5.13;1.70;;;23.50;61.60;;;;;;4982030;28;96206;-73
2021/10/20 04:36:36;;;;;;;5.55;2.47;;;23.50;59.80;;;;;;4979719;28;96053;-73
2021/10/20 04:39:07;;;;;;;3.05;1.60;;;23.50;62.20;;;;;;5001047;28;95583;-74
2021/10/20 04:41:37;;;;;;;3.08;1.80;;;23.40;62.40;;;;;;4989109;28;96066;-64
2021/10/20 04:44:09;;;;;;;3.38;1.40;;;23.40;62.60;;;;;;4990689;28;95475;-74
2021/10/20 04:46:44;;;;;;;5.88;2.47;;;23.40;62.90;;;;;;4978361;28;96168;-74
2021/10/20 04:49:15;;;;;;;3.40;1.63;;;23.40;63.10;;;;;;4990347;28;95975;-64
2021/10/20 04:51:47;;;;;;;6.07;2.33;;;23.40;63.20;;;;;;4979260;28;95597;-73
2021/10/20 04:54:19;;;;;;;4.75;1.92;;;23.40;63.30;;;;;;4984388;28;95906;-65
2021/10/20 04:56:49;;;;;;;5.90;1.67;;;23.30;63.40;;;;;;4981591;28;96060;-75
2021/10/20 04:59:19;;;;;;;2.63;1.60;;;23.30;63.50;;;;;;4985839;28;96141;-69
2021/10/20 05:01:49;;;;;;;2.72;1.50;;;23.30;63.60;;;;;;4982658;28;95841;-73
2021/10/20 05:04:22;;;;;;;3.95;1.50;;;23.30;63.80;;;;;;4980551;28;95511;-73
2021/10/20 05:06:53;;;;;;;5.20;1.70;;;23.30;63.80;;;;;;4999359;28;95966;-74
2021/10/20 05:09:23;;;;;;;4.50;2.05;;;23.40;63.90;;;;;;4979808;28;96033;-73
2021/10/20 05:11:53;;;;;;;2.80;1.90;;;23.30;63.90;;;;;;4987656;28;95432;-64
2021/10/20 05:14:23;;;;;;;1.88;1.42;;;23.30;63.90;;;;;;4982965;28;95968;-64
2021/10/20 05:16:55;;;;;;;2.83;1.48;;;23.30;64.00;;;;;;4977538;28;96750;-64
2021/10/20 05:19:25;;;;;;;2.58;1.42;;;23.40;64.10;;;;;;4985120;28;95774;-65
2021/10/20 05:21:56;;;;;;;3.63;1.45;;;23.40;65.00;;;;;;4979239;28;97978;-65
2021/10/20 05:24:27;;;;;;;3.47;1.48;;;23.40;64.40;;;;;;5000095;28;95504;-75
2021/10/20 05:26:57;;;;;;;;;;;23.40;64.30;;;;;;4975272;28;96110;-74
2021/10/20 05:29:32;;;;;;;5.07;1.75;;;23.40;64.30;;;;;;4982598;28;98101;-75
2021/10/20 05:32:04;;;;;;;2.92;1.27;;;23.40;64.30;;;;;;4981093;28;95645;-75
2021/10/20 05:34:33;;;;;;;;;;;23.40;64.40;;;;;;4994821;28;97678;-72
2021/10/20 05:37:03;;;;;;;2.67;1.70;;;23.40;64.60;;;;;;4976968;28;96180;-64
2021/10/20 05:39:34;;;;;;;4.60;2.13;;;23.40;64.70;;;;;;4982126;28;96260;-64
2021/10/20 05:42:05;;;;;;;6.13;1.63;;;23.40;64.70;;;;;;4980851;28;96623;-74
2021/10/20 05:44:36;;;;;;;2.40;1.20;;;23.40;64.70;;;;;;4982260;28;95845;-65
2021/10/20 05:47:07;;;;;;;4.43;1.20;;;23.40;64.70;;;;;;4977463;27;96471;-72
2021/10/20 05:49:38;;;;;;;3.60;1.30;;;23.50;62.80;;;;;;4998191;28;95914;-73
2021/10/20 05:52:09;;;;;;;3.08;1.40;;;23.50;63.30;;;;;;4981214;28;95320;-72
2021/10/20 05:54:41;;;;;;;7.25;2.08;;;23.60;62.80;;;;;;5002080;28;97382;-72
2021/10/20 05:57:12;;;;;;;2.40;1.42;;;23.60;61.10;;;;;;4985376;28;96916;-71
2021/10/20 05:59:44;;;;;;;4.22;1.50;;;23.70;62.40;;;;;;4978453;28;97380;-71
2021/10/20 06:02:15;;;;;;;7.95;1.70;;;23.70;62.10;;;;;;4976469;28;95916;-74
2021/10/20 06:04:46;;;;;;;5.50;1.65;;;23.70;61.40;;;;;;5002456;28;97911;-64
2021/10/20 06:07:16;;;;;;;4.27;1.77;;;23.80;61.50;;;;;;4987754;28;98725;-71
2021/10/20 06:09:47;;;;;;;3.55;1.40;;;23.80;60.40;;;;;;4985489;28;95748;-71
2021/10/20 06:12:17;;;;;;;4.70;1.50;;;23.80;61.10;;;;;;4985056;28;95676;-71
2021/10/20 06:14:48;;;;;;;6.47;2.05;;;23.80;61.40;;;;;;4979198;28;95574;-73
2021/10/20 06:17:19;;;;;;;5.20;1.30;;;23.90;61.60;;;;;;4974801;27;97329;-71
2021/10/20 06:19:49;;;;;;;2.70;1.58;;;23.90;61.40;;;;;;4983284;28;97632;-72
2021/10/20 06:22:20;;;;;;;10.63;1.98;;;23.90;60.90;;;;;;4983120;28;95887;-71
2021/10/20 06:24:51;;;;;;;5.05;1.52;;;23.90;60.60;;;;;;4980627;28;95925;-71
2021/10/20 06:27:21;;;;;;;;;;;23.70;60.20;;;;;;4978359;28;97990;-71
2021/10/20 06:29:53;;;;;;;4.23;1.53;;;23.80;60.10;;;;;;4981753;28;96267;-71
2021/10/20 06:32:24;;;;;;;11.10;1.80;;;23.80;60.40;;;;;;4969926;27;97081;-64
2021/10/20 06:34:55;;;;;;;4.60;1.65;;;23.70;60.20;;;;;;4994821;28;95951;-71
2021/10/20 06:37:27;;;;;;;7.20;2.33;;;23.80;60.60;;;;;;4980978;28;96188;-64
2021/10/20 06:40:00;;;;;;;5.63;2.00;;;23.70;60.90;;;;;;4985605;28;95801;-71
2021/10/20 06:42:32;;;;;;;10.32;2.15;;;23.70;59.50;;;;;;4978693;28;96056;-65
2021/10/20 06:45:03;;;;;;;5.03;1.70;;;23.70;60.40;;;;;;4988726;28;95543;-65
2021/10/20 06:47:34;;;;;;;3.78;1.52;;;23.60;60.20;;;;;;4992563;28;96514;-70
2021/10/20 06:50:09;;;;;;;5.47;2.15;;;23.50;60.00;;;;;;4983824;28;98727;-70
2021/10/20 06:52:39;;;;;;;6.47;2.35;;;23.60;61.20;;;;;;4984536;28;95739;-72
2021/10/20 06:55:12;;;;;;;7.07;2.35;;;23.60;61.10;;;;;;4987493;28;95645;-71
2021/10/20 06:57:42;;;;;;;5.60;2.78;;;23.60;60.50;;;;;;4979007;28;96009;-69
2021/10/20 07:00:12;;;;;;;9.85;3.65;;;23.50;60.00;;;;;;4982458;28;95801;-70
2021/10/20 07:02:43;;;;;;;6.80;2.55;;;23.50;61.70;;;;;;4971360;28;95775;-64
2021/10/20 07:05:14;;;;;;;6.45;2.50;;;23.50;60.60;;;;;;4980237;28;95618;-64
2021/10/20 07:07:44;;;;;;;;;;;23.50;62.10;;;;;;4991693;28;96499;-63
2021/10/20 07:10:15;;;;;;;5.13;2.75;;;23.50;60.50;;;;;;4985706;28;95815;-70
2021/10/20 07:12:45;;;;;;;2.92;2.13;;;23.50;61.50;;;;;;4979559;28;95918;-70
2021/10/20 07:15:16;;;;;;;6.68;2.53;;;23.50;61.10;;;;;;4989912;27;95904;-63
2021/10/20 07:17:47;;;;;;;9.25;2.60;;;23.40;60.30;;;;;;4980184;28;95813;-70
2021/10/20 07:20:18;;;;;;;5.68;1.98;;;23.30;61.60;;;;;;4976606;28;96567;-70
2021/10/20 07:22:49;;;;;;;4.05;1.85;;;23.40;61.80;;;;;;4975294;28;97001;-70
2021/10/20 07:25:21;;;;;;;3.55;2.15;;;23.40;62.40;;;;;;4974490;28;96132;-63
2021/10/20 07:27:52;;;;;;;9.75;2.78;;;23.30;61.10;;;;;;4976627;28;99752;-64
2021/10/20 07:30:23;;;;;;;4.10;2.17;;;23.30;62.10;;;;;;4971792;28;95827;-70
2021/10/20 07:32:54;;;;;;;10.85;2.92;;;23.40;61.90;;;;;;4975970;28;95611;-70
2021/10/20 07:35:26;;;;;;;5.65;2.13;;;23.30;61.50;;;;;;4980789;28;100730;-69
2021/10/20 07:37:57;;;;;;;7.07;2.33;;;23.30;61.30;;;;;;4983450;28;97144;-63
2021/10/20 07:40:29;;;;;;;8.48;2.13;;;23.30;60.80;;;;;;4980625;28;96290;-70
2021/10/20 07:43:01;;;;;;;7.03;2.28;;;23.20;61.50;;;;;;4982638;28;95335;-63
2021/10/20 07:45:32;;;;;;;5.80;1.88;;;23.10;61.20;;;;;;4980099;28;95972;-68
2021/10/20 07:48:05;;;;;;;13.10;3.17;;;23.10;61.60;;;;;;4983821;28;99834;-69
2021/10/20 07:50:39;;;;;;;11.60;2.90;;;23.10;61.90;;;;;;4998201;28;96784;-64
2021/10/20 07:53:10;;;;;;;11.75;3.05;;;23.00;61.00;;;;;;4987056;28;96167;-70
2021/10/20 07:55:41;;;;;;;7.88;3.28;;;23.00;61.80;;;;;;4986413;28;95758;-70
2021/10/20 07:58:11;;;;;;;12.55;3.47;;;23.00;62.40;;;;;;4980727;28;98095;-70
2021/10/20 08:00:42;;;;;;;8.13;3.92;;;23.00;62.60;;;;;;4976257;28;97645;-70
2021/10/20 08:03:13;;;;;;;13.20;4.10;;;23.00;62.20;;;;;;4983913;28;95809;-63
2021/10/20 08:05:43;;;;;;;13.38;7.63;;;22.90;61.40;;;;;;4987928;28;95526;-70
2021/10/20 08:08:14;;;;;;;14.30;8.73;;;22.90;62.20;;;;;;4998858;28;97147;-69
2021/10/20 08:10:45;;;;;;;18.80;10.38;;;22.80;61.70;;;;;;4984636;28;95966;-69
2021/10/20 08:13:15;;;;;;;18.08;8.27;;;22.70;61.20;;;;;;4981925;28;95246;-69
2021/10/20 08:15:48;;;;;;;16.60;8.77;;;22.70;61.30;;;;;;4976062;28;95239;-69
2021/10/20 08:18:19;;;;;;;17.35;9.55;;;22.60;60.70;;;;;;4985544;28;98320;-69
2021/10/20 08:20:49;;;;;;;26.10;12.87;;;22.60;61.50;;;;;;4983308;28;95446;-70
2021/10/20 08:23:20;;;;;;;;;;;22.50;61.40;;;;;;4986911;28;95644;-70
2021/10/20 08:25:52;;;;;;;19.10;10.57;;;22.50;61.40;;;;;;5001114;28;97031;-63
2021/10/20 08:28:23;;;;;;;16.35;9.95;;;22.50;61.10;;;;;;4984520;28;96966;-69
2021/10/20 08:30:55;;;;;;;21.35;9.35;;;22.50;61.40;;;;;;4975120;28;96448;-69
2021/10/20 08:33:25;;;;;;;18.03;9.27;;;22.40;61.40;;;;;;4983795;28;96167;-63
2021/10/20 08:35:56;;;;;;;18.95;8.00;;;22.40;61.60;;;;;;4975152;28;96152;-64
2021/10/20 08:38:27;;;;;;;14.25;6.20;;;22.30;61.80;;;;;;4985261;28;95873;-70
2021/10/20 08:41:00;;;;;;;14.20;4.85;;;22.30;61.40;;;;;;4994030;28;96011;-69
2021/10/20 08:43:32;;;;;;;16.85;5.25;;;22.20;61.40;;;;;;4984110;28;96607;-63
2021/10/20 08:46:03;;;;;;;9.38;3.70;;;22.20;61.40;;;;;;4993668;28;97936;-63
2021/10/20 08:48:35;;;;;;;10.13;4.65;;;22.00;60.60;;;;;;4984322;28;96531;-63
2021/10/20 08:51:08;;;;;;;16.95;7.25;;;22.10;61.60;;;;;;4984394;28;96173;-63
2021/10/20 08:53:44;;;;;;;17.50;7.32;;;22.00;61.90;;;;;;4988886;28;95633;-65
2021/10/20 08:56:17;;;;;;;17.98;7.05;;;21.90;62.00;;;;;;4984872;28;96057;-63
2021/10/20 08:58:47;;;;;;;19.08;7.45;;;21.80;61.90;;;;;;4980989;28;97068;-71
2021/10/20 09:01:18;;;;;;;17.13;6.80;;;21.70;61.60;;;;;;4978489;28;96272;-73
2021/10/20 09:03:50;;;;;;;16.00;6.72;;;21.80;63.20;;;;;;4985756;28;97672;-72
2021/10/20 09:06:21;;;;;;;14.40;6.10;;;21.90;64.30;;;;;;4990784;28;95269;-71
2021/10/20 09:08:52;;;;;;;15.88;6.93;;;22.00;63.90;;;;;;5000954;28;98251;-64
2021/10/20 09:11:34;;;;;;;10.60;5.35;;;22.00;64.20;;;;;;4999472;28;95394;-66
2021/10/20 09:14:07;;;;;;;17.80;5.57;;;22.00;64.10;;;;;;4988201;28;97482;-64
2021/10/20 09:16:40;;;;;;;17.08;5.47;;;22.00;64.30;;;;;;4991235;28;96487;-71
2021/10/20 09:19:31;;;;;;;14.32;5.72;;;22.00;64.20;;;;;;4985285;28;98534;-63
2021/10/20 09:22:04;;;;;;;10.60;5.28;;;22.00;64.40;;;;;;4989739;28;96249;-71
2021/10/20 09:24:36;;;;;;;9.88;4.75;;;21.90;64.30;;;;;;4991527;28;95615;-68
2021/10/20 09:27:24;;;;;;;12.65;4.75;;;21.90;64.30;;;;;;4986873;28;95524;-70
2021/10/20 09:30:15;;;;;;;12.20;5.45;;;21.80;64.20;;;;;;4988313;28;96106;-64
2021/10/20 09:32:47;;;;;;;11.82;5.90;;;21.80;64.10;;;;;;4977612;28;97758;-64
2021/10/20 09:35:20;;;;;;;9.85;5.53;;;21.80;64.40;;;;;;4979155;28;95872;-64
2021/10/20 09:37:58;;;;;;;13.85;5.95;;;21.80;64.10;;;;;;4993754;28;95628;-72
2021/10/20 09:40:40;;;;;;;10.23;6.00;;;21.70;63.70;;;;;;4983186;28;96171;-64
2021/10/20 09:43:17;;;;;;;11.63;4.90;;;21.70;64.20;;;;;;4989227;28;95736;-64
2021/10/20 09:45:48;;;;;;;10.27;4.63;;;21.70;64.70;;;;;;4981943;28;95659;-73
2021/10/20 09:48:24;;;;;;;10.90;4.93;;;21.70;64.90;;;;;;4985614;28;95798;-64
2021/10/20 09:50:59;;;;;;;11.43;4.88;;;21.60;65.30;;;;;;4982358;28;96116;-70
2021/10/20 09:53:36;;;;;;;9.15;3.92;;;21.70;65.10;;;;;;4983959;28;96695;-70
2021/10/20 09:56:20;;;;;;;7.63;4.10;;;21.70;65.20;;;;;;5001446;28;95810;-69
2021/10/20 09:58:52;;;;;;;7.72;4.78;;;21.70;65.30;;;;;;4978985;28;95920;-63
2021/10/20 10:01:24;;;;;;;10.13;3.97;;;21.70;65.20;;;;;;4981033;28;96088;-64
2021/10/20 10:04:02;;;;;;;8.73;4.70;;;21.70;65.30;;;;;;4978475;28;96142;-70
2021/10/20 10:06:33;;;;;;;6.90;3.50;;;21.70;65.30;;;;;;4994346;28;96371;-71
2021/10/20 10:09:24;;;;;;;8.10;4.40;;;21.60;65.40;;;;;;4982426;28;95553;-69
2021/10/20 10:12:00;;;;;;;8.15;4.18;;;21.60;65.50;;;;;;4982735;28;96277;-64
2021/10/20 10:14:40;;;;;;;7.30;3.45;;;21.60;65.50;;;;;;4996758;28;96151;-70
2021/10/20 10:17:14;;;;;;;8.85;4.25;;;21.60;65.60;;;;;;4992072;28;97472;-70
2021/10/20 10:19:44;;;;;;;5.53;3.38;;;21.60;65.60;;;;;;4986816;28;95836;-70
2021/10/20 10:22:26;;;;;;;6.97;4.65;;;21.50;65.60;;;;;;4985294;28;96056;-64
2021/10/20 10:25:04;;;;;;;9.50;4.15;;;21.50;65.60;;;;;;4979319;28;95875;-64
2021/10/20 10:27:35;;;;;;;7.10;4.07;;;21.50;65.80;;;;;;4979976;28;95777;-64
2021/10/20 10:30:19;;;;;;;4.63;3.13;;;21.50;65.80;;;;;;4982214;28;95724;-70
2021/10/20 10:32:57;;;;;;;8.07;3.42;;;21.50;65.50;;;;;;4980824;28;96099;-64
2021/10/20 10:35:37;;;;;;;5.93;3.60;;;21.50;66.00;;;;;;4971313;28;96052;-64
2021/10/20 10:38:09;;;;;;;9.98;4.10;;;21.40;66.00;;;;;;4981280;28;95983;-64
2021/10/20 10:40:40;;;;;;;;;;;21.40;66.10;;;;;;4982418;28;95868;-64
2021/10/20 10:43:12;;;;;;;5.15;3.60;;;21.40;66.10;;;;;;4987330;28;95989;-70
2021/10/20 10:45:43;;;;;;;7.50;3.55;;;21.40;66.20;;;;;;4978351;28;97498;-64
2021/10/20 10:48:15;;;;;;;7.80;4.38;;;21.40;66.20;;;;;;4991770;28;97926;-69
2021/10/20 10:50:55;;;;;;;7.13;3.70;;;21.30;66.20;;;;;;4985255;28;95418;-64
2021/10/20 10:53:30;;;;;;;8.60;4.20;;;21.30;66.40;;;;;;4983375;28;96971;-64
2021/10/20 10:56:14;;;;;;;7.18;4.28;;;21.30;66.40;;;;;;4979629;28;97234;-62
2021/10/20 10:59:06;;;;;;;8.85;4.53;;;21.30;66.40;;;;;;4982772;28;96158;-63
2021/10/20 11:01:44;;;;;;;5.80;4.65;;;21.20;66.40;;;;;;4990428;28;95691;-70
2021/10/20 11:04:19;;;;;;;5.28;3.17;;;21.20;66.40;;;;;;4977985;28;98061;-66
2021/10/20 11:06:56;;;;;;;7.25;4.65;;;21.20;66.50;;;;;;4980186;28;95286;-63
2021/10/20 11:09:31;;;;;;;7.22;3.90;;;21.20;67.20;;;;;;4985015;28;97340;-70
2021/10/20 11:12:03;;;;;;;7.40;3.70;;;21.10;66.50;;;;;;4977808;28;95850;-63
2021/10/20 11:14:34;;;;;;;9.13;4.00;;;21.10;66.60;;;;;;4982268;28;97113;-68
2021/10/20 11:17:10;;;;;;;4.90;3.72;;;21.10;66.60;;;;;;4977210;28;95560;-64
2021/10/20 11:19:41;;;;;;;6.70;4.03;;;21.10;66.60;;;;;;4987218;28;95332;-63
2021/10/20 11:22:23;;;;;;;6.30;4.25;;;21.00;66.60;;;;;;4986613;28;95762;-70
2021/10/20 11:24:57;;;;;;;6.80;4.03;;;21.00;67.30;;;;;;4981614;28;96393;-63
2021/10/20 11:27:30;;;;;;;9.38;5.32;;;21.00;66.70;;;;;;4980203;28;95703;-62
2021/10/20 11:30:06;;;;;;;10.40;4.97;;;21.00;66.80;;;;;;4977759;28;96036;-64
2021/10/20 11:32:37;;;;;;;8.68;5.10;;;21.00;66.80;;;;;;4978701;28;95505;-64
2021/10/20 11:35:15;;;;;;;8.93;4.73;;;21.00;66.80;;;;;;4979782;28;96060;-63
2021/10/20 11:38:00;;;;;;;6.32;4.45;;;20.90;66.80;;;;;;4979168;28;95929;-70
2021/10/20 11:40:34;;;;;;;7.82;4.47;;;20.90;66.40;;;;;;4980285;28;95335;-69
2021/10/20 11:43:17;;;;;;;7.30;4.05;;;20.80;67.40;;;;;;4984349;28;97446;-63
2021/10/20 11:45:48;;;;;;;11.93;6.03;;;20.90;66.90;;;;;;4990483;28;96474;-63
2021/10/20 11:48:24;;;;;;;6.25;4.90;;;20.80;66.90;;;;;;4981465;28;96107;-64
2021/10/20 11:50:59;;;;;;;7.47;4.65;;;20.80;66.90;;;;;;4984030;28;95683;-63
2021/10/20 11:53:30;;;;;;;6.97;4.55;;;20.80;66.90;;;;;;4985259;28;96070;-64
2021/10/20 11:56:02;;;;;;;7.93;5.25;;;20.70;66.90;;;;;;4988551;28;96129;-64
2021/10/20 11:58:33;;;;;;;7.25;5.10;;;20.70;67.00;;;;;;4984854;28;95687;-64
2021/10/20 12:01:08;;;;;;;10.57;5.10;;;20.70;67.00;;;;;;4975498;28;98688;-64
2021/10/20 12:03:43;;;;;;;10.30;5.70;;;20.70;67.70;;;;;;4979508;28;98173;-70
2021/10/20 12:06:22;;;;;;;9.82;5.50;;;20.60;67.10;;;;;;4976802;28;96118;-63
2021/10/20 12:08:53;;;;;;;10.52;5.60;;;20.60;67.10;;;;;;4983672;28;96183;-64
2021/10/20 12:11:24;;;;;;;;;;;20.60;67.10;;;;;;4984883;28;95569;-64
2021/10/20 12:14:04;;;;;;;7.65;4.30;;;20.60;67.20;;;;;;4982289;28;95822;-65
2021/10/20 12:16:38;;;;;;;8.73;5.00;;;20.50;67.10;;;;;;4977918;28;98879;-63
2021/10/20 12:19:11;;;;;;;9.18;4.65;;;20.50;66.80;;;;;;4988910;28;96376;-68
2021/10/20 12:21:43;;;;;;;6.10;4.15;;;20.50;67.20;;;;;;4978964;28;95657;-63
2021/10/20 12:24:18;;;;;;;8.70;4.57;;;20.50;67.30;;;;;;4979507;28;96608;-63
2021/10/20 12:26:50;;;;;;;7.63;4.82;;;20.40;67.30;;;;;;4979962;28;96059;-64
2021/10/20 12:29:26;;;;;;;8.25;5.10;;;20.40;67.30;;;;;;4977266;28;95295;-63
2021/10/20 12:31:58;;;;;;;7.78;5.43;;;20.40;67.30;;;;;;4978293;28;96564;-63
2021/10/20 12:34:28;;;;;;;8.68;4.40;;;20.40;67.40;;;;;;4975756;28;96113;-66
2021/10/20 12:37:00;;;;;;;8.68;4.53;;;20.30;67.30;;;;;;4974447;28;96408;-63
2021/10/20 12:39:32;;;;;;;7.07;4.22;;;20.30;67.30;;;;;;4983692;28;96056;-64
2021/10/20 12:42:04;;;;;;;7.03;3.55;;;20.30;67.40;;;;;;4974929;28;95253;-64
2021/10/20 12:44:34;;;;;;;7.75;4.53;;;20.20;67.40;;;;;;4981985;28;95215;-69
2021/10/20 12:47:07;;;;;;;7.72;4.45;;;20.30;67.40;;;;;;4981404;28;96074;-64
2021/10/20 12:49:38;;;;;;;6.80;3.55;;;20.20;67.50;;;;;;4985749;28;95919;-63
2021/10/20 12:52:09;;;;;;;8.70;3.97;;;20.20;67.40;;;;;;4981865;28;95799;-69
2021/10/20 12:54:56;;;;;;;6.00;3.38;;;20.20;67.40;;;;;;4994666;28;95829;-64
2021/10/20 12:57:26;;;;;;;5.57;3.72;;;20.20;67.50;;;;;;4989023;28;95917;-68
2021/10/20 13:00:10;;;;;;;4.93;3.70;;;20.10;67.50;;;;;;4979622;28;95871;-63
2021/10/20 13:02:43;;;;;;;5.53;3.78;;;20.10;67.50;;;;;;4984432;28;95313;-64
2021/10/20 13:05:17;;;;;;;4.25;3.15;;;20.10;67.60;;;;;;4982713;28;95593;-63
2021/10/20 13:07:54;;;;;;;4.47;3.20;;;20.10;67.70;;;;;;4992738;28;97490;-65
2021/10/20 13:10:45;;;;;;;6.93;4.18;;;20.00;65.50;;;;;;4979675;28;95993;-64
2021/10/20 13:13:16;;;;;;;4.47;3.38;;;20.00;67.80;;;;;;4982829;28;95515;-64
2021/10/20 13:15:48;;;;;;;5.80;3.30;;;20.00;67.80;;;;;;4977719;28;98173;-64
2021/10/20 13:18:20;;;;;;;6.05;3.60;;;20.00;67.70;;;;;;4984991;28;97929;-64